createdAt,value
2022-10-25T00:01:57.634Z,16.53
2022-10-25T00:04:25.943Z,17.12
2022-10-25T00:06:54.113Z,16.42
2022-10-25T00:09:22.314Z,16.57
2022-10-25T00:11:50.540Z,16.79
2022-10-25T00:14:20.607Z,16.97
2022-10-25T00:16:48.816Z,17.35
2022-10-25T00:19:17.016Z,17.40
2022-10-25T00:21:45.200Z,17.58
2022-10-25T00:24:14.284Z,17.60
2022-10-25T00:26:43.151Z,17.23
2022-10-25T00:29:12.727Z,17.81
2022-10-25T00:31:42.354Z,17.72
2022-10-25T00:34:10.652Z,17.51
2022-10-25T00:36:38.915Z,17.31
2022-10-25T00:39:07.085Z,17.38
2022-10-25T00:41:35.841Z,17.24
2022-10-25T00:45:02.729Z,17.46
2022-10-25T00:47:53.546Z,17.58
2022-10-25T00:50:36.035Z,16.72
2022-10-25T00:53:10.757Z,16.65
2022-10-25T00:55:42.827Z,17.13
2022-10-25T00:58:14.539Z,17.39
2022-10-25T01:00:45.245Z,16.86
2022-10-25T01:03:16.513Z,16.85
2022-10-25T01:05:45.174Z,16.86
2022-10-25T01:08:14.965Z,17.15
2022-10-25T01:10:43.356Z,16.68
2022-10-25T01:13:11.700Z,17.12
2022-10-25T01:15:51.926Z,16.76
2022-10-25T01:18:32.211Z,16.83
2022-10-25T01:21:40.618Z,16.47
2022-10-25T01:24:32.952Z,16.85
2022-10-25T01:27:38.607Z,16.45
2022-10-25T01:30:13.585Z,15.73
2022-10-25T01:32:54.479Z,15.94
2022-10-25T01:35:31.010Z,16.00
2022-10-25T01:38:21.410Z,16.50
2022-10-25T01:41:03.217Z,16.52
2022-10-25T01:43:42.494Z,16.65
2022-10-25T01:46:21.634Z,17.41
2022-10-25T01:49:00.036Z,16.41
2022-10-25T01:51:29.731Z,16.25
2022-10-25T01:53:58.208Z,16.27
2022-10-25T01:56:31.111Z,16.81
2022-10-25T01:59:31.728Z,16.84
2022-10-25T02:02:10.415Z,17.22
2022-10-25T02:04:53.217Z,17.28
2022-10-25T02:07:28.967Z,16.58
2022-10-25T02:12:43.221Z,17.32
2022-10-25T02:15:16.990Z,17.06
2022-10-25T02:17:53.057Z,17.13
2022-10-25T02:20:26.470Z,16.90
2022-10-25T02:22:56.933Z,17.44
2022-10-25T02:25:25.243Z,17.53
2022-10-25T02:27:55.968Z,17.60
2022-10-25T02:30:24.194Z,17.41
2022-10-25T02:32:53.457Z,17.53
2022-10-25T02:35:22.963Z,17.47
2022-10-25T02:37:51.138Z,17.22
2022-10-25T02:40:19.838Z,17.19
2022-10-25T02:42:47.949Z,17.52
2022-10-25T02:45:16.316Z,17.07
2022-10-25T02:47:44.613Z,17.44
2022-10-25T02:50:13.057Z,17.23
2022-10-25T02:52:42.582Z,17.23
2022-10-25T02:55:11.111Z,16.97
2022-10-25T02:57:39.669Z,17.08
2022-10-25T03:00:10.755Z,16.55
2022-10-25T03:02:38.914Z,16.93
2022-10-25T03:05:08.023Z,16.96
2022-10-25T03:07:36.177Z,17.25
2022-10-25T03:10:06.863Z,17.30
2022-10-25T03:12:34.986Z,17.61
2022-10-25T03:15:03.170Z,17.45
2022-10-25T03:17:31.329Z,17.07
2022-10-25T03:19:59.452Z,17.30
2022-10-25T03:22:27.650Z,16.83
2022-10-25T03:24:55.885Z,17.43
2022-10-25T03:27:25.469Z,17.42
2022-10-25T03:29:54.883Z,16.14
2022-10-25T03:32:23.048Z,16.10
2022-10-25T03:34:51.207Z,16.05
2022-10-25T03:37:19.344Z,16.14
2022-10-25T03:39:47.477Z,16.14
2022-10-25T03:42:15.660Z,16.72
2022-10-25T03:44:45.531Z,16.68
2022-10-25T03:47:13.714Z,17.23
2022-10-25T03:49:41.850Z,16.27
2022-10-25T03:52:10.161Z,16.26
2022-10-25T03:54:38.633Z,16.67
2022-10-25T03:57:06.777Z,16.67
2022-10-25T03:59:35.025Z,16.56
2022-10-25T04:02:04.840Z,16.30
2022-10-25T04:04:33.119Z,17.07
2022-10-25T04:07:01.289Z,16.33
2022-10-25T04:09:29.441Z,16.32
2022-10-25T04:11:57.597Z,16.77
2022-10-25T04:14:25.724Z,16.65
2022-10-25T04:16:53.927Z,16.97
2022-10-25T04:19:23.483Z,17.49
2022-10-25T04:21:51.664Z,17.33
2022-10-25T04:24:19.934Z,16.63
2022-10-25T04:26:48.110Z,16.60
2022-10-25T04:29:17.442Z,16.67
2022-10-25T04:31:45.676Z,17.19
2022-10-25T04:34:13.826Z,17.14
2022-10-25T04:36:43.814Z,17.45
2022-10-25T04:39:12.221Z,17.43
2022-10-25T04:41:40.455Z,17.18
2022-10-25T04:44:08.623Z,16.87
2022-10-25T04:46:36.791Z,17.13
2022-10-25T04:49:05.025Z,16.84
2022-10-25T04:51:34.317Z,17.15
2022-10-25T04:54:03.804Z,16.31
2022-10-25T04:56:32.062Z,17.00
2022-10-25T04:59:00.658Z,16.49
2022-10-25T05:01:28.994Z,16.55
2022-10-25T05:03:57.231Z,17.14
2022-10-25T05:06:27.712Z,17.14
2022-10-25T05:08:56.553Z,16.94
2022-10-25T05:11:26.829Z,17.35
2022-10-25T05:13:55.052Z,17.20
2022-10-25T05:16:25.850Z,17.46
2022-10-25T05:18:56.171Z,17.59
2022-10-25T05:21:28.812Z,17.64
2022-10-25T05:24:01.414Z,17.23
2022-10-25T05:26:32.635Z,17.04
2022-10-25T05:29:00.910Z,17.11
2022-10-25T05:31:31.245Z,16.85
2022-10-25T05:34:02.037Z,17.24
2022-10-25T05:36:30.367Z,16.82
2022-10-25T05:39:00.813Z,17.37
2022-10-25T05:41:31.860Z,17.49
2022-10-25T05:44:04.428Z,17.75
2022-10-25T05:46:32.622Z,17.81
2022-10-25T05:49:01.501Z,17.11
2022-10-25T05:51:36.271Z,16.96
2022-10-25T05:54:07.790Z,17.65
2022-10-25T05:56:36.691Z,17.18
2022-10-25T05:59:08.938Z,17.64
2022-10-25T06:01:38.336Z,17.78
2022-10-25T06:04:07.124Z,17.61
2022-10-25T06:06:36.124Z,17.16
2022-10-25T06:09:05.659Z,17.57
2022-10-25T06:11:34.579Z,17.82
2022-10-25T06:14:02.831Z,17.57
2022-10-25T06:16:32.451Z,17.25
2022-10-25T06:19:00.603Z,17.33
2022-10-25T06:21:30.824Z,17.66
2022-10-25T06:24:00.648Z,17.78
2022-10-25T06:26:31.478Z,17.84
2022-10-25T06:29:02.317Z,16.95
2022-10-25T06:31:33.052Z,16.89
2022-10-25T06:34:01.414Z,16.90
2022-10-25T06:36:31.187Z,17.03
2022-10-25T06:39:05.237Z,16.83
2022-10-25T06:41:36.933Z,17.06
2022-10-25T06:44:07.219Z,17.09
2022-10-25T06:47:11.723Z,16.90
2022-10-25T06:49:28.042Z,17.38
2022-10-25T06:51:56.289Z,17.39
2022-10-25T06:54:25.561Z,17.17
2022-10-25T06:56:53.889Z,17.26
2022-10-25T06:59:22.156Z,17.53
2022-10-25T07:01:51.818Z,16.92
2022-10-25T07:04:20.054Z,17.11
2022-10-25T07:06:50.225Z,17.11
2022-10-25T07:09:21.250Z,17.45
2022-10-25T07:11:49.431Z,17.39
2022-10-25T07:14:17.846Z,17.55
2022-10-25T07:16:45.995Z,17.75
2022-10-25T07:19:15.485Z,17.46
2022-10-25T07:21:45.130Z,17.58
2022-10-25T07:24:14.679Z,17.46
2022-10-25T07:26:42.896Z,17.98
2022-10-25T07:29:11.444Z,16.99
2022-10-25T07:31:44.285Z,17.20
2022-10-25T07:34:15.657Z,16.95
2022-10-25T07:36:44.162Z,16.86
2022-10-25T07:39:12.395Z,17.33
2022-10-25T07:41:40.577Z,17.66
2022-10-25T07:44:13.026Z,17.61
2022-10-25T07:46:44.377Z,17.68
2022-10-25T07:49:12.527Z,17.70
2022-10-25T07:51:42.068Z,17.73
2022-10-25T07:54:10.293Z,17.71
2022-10-25T07:56:38.489Z,17.79
2022-10-25T07:59:06.694Z,16.59
2022-10-25T08:01:34.905Z,17.36
2022-10-25T08:04:03.113Z,17.86
2022-10-25T08:06:31.310Z,17.89
2022-10-25T08:09:09.691Z,18.01
2022-10-25T08:11:48.598Z,17.13
2022-10-25T08:14:17.060Z,17.67
2022-10-25T08:16:47.062Z,16.48
2022-10-25T08:19:15.261Z,16.84
2022-10-25T08:21:44.135Z,17.28
2022-10-25T08:24:13.844Z,16.35
2022-10-25T08:26:42.014Z,16.70
2022-10-25T08:29:10.368Z,17.07
2022-10-25T08:31:38.547Z,17.72
2022-10-25T08:34:06.885Z,16.81
2022-10-25T08:36:35.268Z,17.20
2022-10-25T08:39:03.423Z,17.66
2022-10-25T08:41:45.603Z,17.84
2022-10-25T08:44:25.962Z,18.27
2022-10-25T08:47:01.592Z,18.42
2022-10-25T08:49:43.187Z,18.17
2022-10-25T08:52:21.211Z,18.01
2022-10-25T08:54:51.110Z,18.03
2022-10-25T08:57:25.140Z,17.67
2022-10-25T08:59:56.178Z,17.93
2022-10-25T09:02:34.994Z,17.49
2022-10-25T09:05:03.538Z,17.61
2022-10-25T09:08:00.528Z,18.19
2022-10-25T09:10:54.849Z,17.24
2022-10-25T09:13:38.041Z,17.32
2022-10-25T09:16:16.793Z,17.58
2022-10-25T09:18:50.679Z,17.56
2022-10-25T09:21:23.113Z,17.76
2022-10-25T09:24:00.807Z,17.70
2022-10-25T09:26:47.343Z,16.96
2022-10-25T09:29:26.253Z,16.26
2022-10-25T09:31:59.252Z,16.80
2022-10-25T09:34:34.124Z,17.25
2022-10-25T09:37:15.038Z,16.72
2022-10-25T09:39:47.000Z,17.11
2022-10-25T09:42:22.819Z,17.50
2022-10-25T09:44:57.966Z,17.03
2022-10-25T09:47:39.028Z,17.05
2022-10-25T09:50:25.066Z,17.14
2022-10-25T09:53:10.816Z,17.02
2022-10-25T09:55:51.776Z,17.10
2022-10-25T09:58:23.849Z,16.70
2022-10-25T10:00:55.876Z,17.70
2022-10-25T10:03:28.699Z,17.27
2022-10-25T10:06:01.245Z,16.93
2022-10-25T10:08:32.945Z,17.34
2022-10-25T10:11:01.401Z,17.41
2022-10-25T10:13:36.757Z,17.63
2022-10-25T10:16:19.925Z,17.34
2022-10-25T10:18:48.563Z,18.17
2022-10-25T10:21:20.556Z,18.16
2022-10-25T10:23:53.397Z,17.64
2022-10-25T10:26:30.174Z,17.72
2022-10-25T10:29:15.361Z,17.38
2022-10-25T10:31:50.905Z,17.49
2022-10-25T10:34:27.460Z,17.43
2022-10-25T10:37:16.023Z,16.94
2022-10-25T10:39:55.759Z,17.19
2022-10-25T10:42:33.435Z,17.57
2022-10-25T10:45:18.110Z,17.49
2022-10-25T10:47:59.009Z,16.80
2022-10-25T10:50:32.620Z,17.01
2022-10-25T10:53:03.340Z,17.63
2022-10-25T10:55:34.460Z,17.85
2022-10-25T10:58:06.643Z,18.34
2022-10-25T11:00:35.939Z,17.61
2022-10-25T11:03:05.945Z,17.70
2022-10-25T11:05:39.527Z,17.95
2022-10-25T11:08:19.811Z,17.55
2022-10-25T11:10:48.048Z,18.05
2022-10-25T11:13:18.575Z,17.69
2022-10-25T11:16:17.907Z,18.12
2022-10-25T11:19:08.383Z,18.44
2022-10-25T11:21:56.472Z,18.10
2022-10-25T11:24:37.505Z,17.92
2022-10-25T11:27:20.285Z,17.72
2022-10-25T11:30:03.524Z,17.41
2022-10-25T11:33:08.529Z,17.35
2022-10-25T11:35:53.580Z,17.41
2022-10-25T11:38:33.661Z,17.89
2022-10-25T11:41:09.333Z,17.62
2022-10-25T11:43:57.678Z,18.26
2022-10-25T11:46:35.436Z,18.69
2022-10-25T11:49:25.249Z,18.11
2022-10-25T11:52:24.423Z,18.38
2022-10-25T11:55:03.541Z,17.85
2022-10-25T11:57:45.611Z,17.99
2022-10-25T12:00:18.203Z,18.33
2022-10-25T12:03:20.020Z,18.08
2022-10-25T12:05:55.513Z,17.79
2022-10-25T12:08:38.504Z,18.05
2022-10-25T12:11:15.063Z,17.97
2022-10-25T12:13:51.476Z,18.18
2022-10-25T12:16:22.985Z,18.09
2022-10-25T12:18:56.862Z,18.17
2022-10-25T12:21:30.935Z,17.99
2022-10-25T12:24:01.579Z,18.05
2022-10-25T12:26:33.349Z,18.50
2022-10-25T12:29:04.453Z,18.96
2022-10-25T12:31:40.049Z,18.41
2022-10-25T12:34:15.122Z,17.97
2022-10-25T12:36:47.001Z,18.10
2022-10-25T12:39:23.815Z,18.79
2022-10-25T12:41:57.606Z,18.21
2022-10-25T12:44:53.689Z,18.21
2022-10-25T12:47:53.415Z,17.78
2022-10-25T12:50:44.173Z,18.05
2022-10-25T12:53:58.541Z,17.90
2022-10-25T12:56:46.329Z,18.29
2022-10-25T12:59:40.417Z,18.63
2022-10-25T13:02:45.520Z,19.01
2022-10-25T13:05:43.479Z,18.28
2022-10-25T13:08:13.848Z,18.17
2022-10-25T13:10:47.460Z,17.98
2022-10-25T13:13:24.365Z,17.50
2022-10-25T13:15:56.243Z,18.05
2022-10-25T13:18:41.437Z,17.60
2022-10-25T13:21:11.536Z,17.76
2022-10-25T13:24:03.081Z,17.96
2022-10-25T13:27:21.591Z,18.34
2022-10-25T13:30:28.124Z,18.02
2022-10-25T13:33:33.216Z,17.75
2022-10-25T13:36:06.339Z,17.81
2022-10-25T13:38:40.145Z,18.12
2022-10-25T13:41:15.358Z,18.12
2022-10-25T13:44:01.710Z,18.34
2022-10-25T13:46:37.425Z,17.91
2022-10-25T13:49:31.672Z,17.90
2022-10-25T13:52:05.140Z,17.70
2022-10-25T13:54:47.626Z,17.56
2022-10-25T13:57:52.623Z,17.72
2022-10-25T14:00:34.938Z,17.75
2022-10-25T14:03:47.408Z,17.83
2022-10-25T14:06:29.346Z,17.68
2022-10-25T14:09:08.821Z,18.28
2022-10-25T14:11:42.129Z,18.09
2022-10-25T14:14:27.050Z,18.26
2022-10-25T14:17:15.721Z,17.93
2022-10-25T14:19:48.400Z,17.68
2022-10-25T14:22:19.123Z,17.59
2022-10-25T14:24:53.839Z,17.81
2022-10-25T14:27:31.719Z,18.14
2022-10-25T14:30:31.290Z,18.00
2022-10-25T14:33:03.792Z,17.75
2022-10-25T14:35:35.149Z,17.78
2022-10-25T14:38:04.201Z,17.61
2022-10-25T14:40:33.269Z,17.28
2022-10-25T14:43:26.445Z,17.77
2022-10-25T14:46:11.716Z,17.20
2022-10-25T14:48:42.264Z,17.73
2022-10-25T14:51:19.599Z,17.44
2022-10-25T14:53:54.144Z,17.57
2022-10-25T14:56:28.138Z,17.70
2022-10-25T14:58:57.452Z,17.57
2022-10-25T15:01:26.946Z,18.07
2022-10-25T15:04:00.936Z,17.66
2022-10-25T15:06:33.458Z,17.69
2022-10-25T15:12:20.118Z,17.15
2022-10-25T15:14:48.893Z,17.10
2022-10-25T15:17:26.079Z,17.37
2022-10-25T15:20:28.138Z,16.98
2022-10-25T15:23:05.573Z,16.94
2022-10-25T15:25:39.032Z,16.96
2022-10-25T15:28:12.510Z,17.02
2022-10-25T15:30:44.972Z,16.89
2022-10-25T15:33:16.526Z,17.12
2022-10-25T15:35:51.350Z,17.11
2022-10-25T15:38:20.070Z,17.17
2022-10-25T15:40:49.857Z,17.07
2022-10-25T15:43:18.018Z,16.94
2022-10-25T15:45:46.431Z,16.85
2022-10-25T15:48:16.862Z,16.57
2022-10-25T15:50:51.747Z,16.87
2022-10-25T15:53:20.471Z,16.92
2022-10-25T15:55:49.607Z,17.39
2022-10-25T15:58:17.777Z,17.08
2022-10-25T16:00:48.026Z,17.31
2022-10-25T16:03:22.911Z,17.14
2022-10-25T16:05:53.544Z,17.35
2022-10-25T16:08:21.827Z,17.61
2022-10-25T16:10:50.167Z,17.81
2022-10-25T16:13:28.554Z,17.81
2022-10-25T16:15:56.840Z,17.76
2022-10-25T16:20:57.902Z,17.96
2022-10-25T16:23:26.257Z,17.97
2022-10-25T16:25:56.192Z,17.83
2022-10-25T16:30:57.450Z,18.03
2022-10-25T16:33:25.661Z,17.90
2022-10-25T16:35:55.171Z,17.96
2022-10-25T16:38:23.319Z,18.01
2022-10-25T16:40:51.501Z,18.04
2022-10-25T16:43:19.651Z,18.12
2022-10-25T16:45:47.813Z,18.09
2022-10-25T16:48:16.609Z,18.05
2022-10-25T16:50:45.057Z,17.92
2022-10-25T16:53:15.942Z,17.99
2022-10-25T16:55:44.119Z,18.00
2022-10-25T16:58:12.299Z,17.92
2022-10-25T17:00:40.567Z,17.92
2022-10-25T17:03:10.175Z,17.97
2022-10-25T17:05:39.843Z,18.02
2022-10-25T17:08:08.091Z,18.06
2022-10-25T17:10:42.403Z,18.07
2022-10-25T17:13:16.069Z,18.14
2022-10-25T17:15:44.475Z,18.17
2022-10-25T17:18:15.953Z,18.04
2022-10-25T17:20:44.294Z,18.00
2022-10-25T17:23:12.442Z,17.89
2022-10-25T17:25:41.973Z,18.04
2022-10-25T17:28:10.622Z,18.11
2022-10-25T17:30:43.019Z,18.08
2022-10-25T17:33:11.154Z,18.10
2022-10-25T17:35:42.906Z,18.10
2022-10-25T17:38:11.072Z,18.07
2022-10-25T17:40:41.021Z,18.07
2022-10-25T17:43:09.551Z,18.01
2022-10-25T17:45:37.714Z,18.07
2022-10-25T17:48:06.650Z,18.08
2022-10-25T17:50:36.086Z,18.04
2022-10-25T17:53:04.282Z,18.02
2022-10-25T17:55:33.505Z,18.05
2022-10-25T17:58:04.134Z,17.80
2022-10-25T18:00:32.319Z,17.85
2022-10-25T18:03:00.730Z,17.92
2022-10-25T18:05:28.931Z,17.95
2022-10-25T18:07:57.112Z,18.02
2022-10-25T18:10:25.290Z,18.00
2022-10-25T18:12:53.416Z,18.03
2022-10-25T18:15:23.115Z,18.05
2022-10-25T18:17:51.450Z,18.03
2022-10-25T18:20:19.965Z,18.03
2022-10-25T18:22:48.126Z,18.00
2022-10-25T18:25:16.582Z,17.98
2022-10-25T18:27:44.873Z,18.03
2022-10-25T18:30:14.166Z,18.07
2022-10-25T18:32:43.678Z,18.05
2022-10-25T18:35:11.840Z,18.02
2022-10-25T18:37:40.001Z,17.96
2022-10-25T18:40:10.242Z,17.96
2022-10-25T18:42:38.706Z,17.88
2022-10-25T18:45:08.417Z,17.77
2022-10-25T18:47:36.586Z,17.86
2022-10-25T18:50:07.511Z,17.92
2022-10-25T18:52:35.694Z,17.90
2022-10-25T18:55:03.954Z,17.89
2022-10-25T18:57:32.081Z,17.91
2022-10-25T19:00:00.291Z,17.88
2022-10-25T19:02:28.560Z,17.86
2022-10-25T19:04:56.883Z,17.89
2022-10-25T19:07:26.605Z,17.86
2022-10-25T19:09:54.818Z,17.89
2022-10-25T19:12:22.967Z,17.89
2022-10-25T19:14:51.106Z,17.87
2022-10-25T19:17:19.280Z,17.80
2022-10-25T19:19:47.395Z,17.77
2022-10-25T19:22:15.983Z,17.74
2022-10-25T19:24:45.528Z,17.64
2022-10-25T19:27:13.698Z,17.57
2022-10-25T19:29:42.538Z,17.59
2022-10-25T19:32:10.706Z,17.71
2022-10-25T19:34:38.914Z,17.72
2022-10-25T19:37:08.887Z,17.76
2022-10-25T19:39:37.885Z,17.68
2022-10-25T19:42:07.536Z,17.67
2022-10-25T19:44:35.673Z,17.57
2022-10-25T19:47:03.954Z,17.61
2022-10-25T19:49:32.256Z,17.46
2022-10-25T19:52:00.455Z,17.37
2022-10-25T19:54:28.609Z,17.35
2022-10-25T19:56:56.782Z,17.43
2022-10-25T19:59:26.271Z,17.44
2022-10-25T20:01:54.580Z,17.39
2022-10-25T20:04:23.053Z,17.42
2022-10-25T20:06:51.216Z,17.36
2022-10-25T20:09:19.445Z,17.42
2022-10-25T20:11:47.625Z,17.42
2022-10-25T20:14:15.786Z,17.39
2022-10-25T20:16:45.312Z,17.43
2022-10-25T20:19:14.841Z,17.48
2022-10-25T20:21:43.047Z,17.51
2022-10-25T20:24:11.769Z,17.49
2022-10-25T20:26:44.587Z,17.58
2022-10-25T20:29:20.316Z,17.53
2022-10-25T20:31:51.837Z,17.51
2022-10-25T20:34:21.264Z,17.46
2022-10-25T20:36:50.099Z,17.43
2022-10-25T20:39:18.586Z,17.47
2022-10-25T20:41:46.836Z,17.37
2022-10-25T20:44:15.148Z,17.39
2022-10-25T20:46:43.495Z,17.42
2022-10-25T20:49:13.068Z,17.42
2022-10-25T20:51:41.205Z,17.31
2022-10-25T20:54:10.201Z,17.36
2022-10-25T20:56:39.612Z,17.31
2022-10-25T20:59:08.380Z,17.32
2022-10-25T21:01:37.062Z,17.34
2022-10-25T21:04:05.888Z,17.37
2022-10-25T21:06:35.439Z,17.37
2022-10-25T21:09:03.916Z,17.25
2022-10-25T21:11:32.654Z,17.30
2022-10-25T21:14:00.815Z,17.27
2022-10-25T21:16:29.057Z,17.32
2022-10-25T21:18:57.239Z,17.32
2022-10-25T21:21:25.411Z,17.31
2022-10-25T21:23:59.410Z,17.28
2022-10-25T21:26:27.606Z,17.29
2022-10-25T21:28:55.846Z,17.29
2022-10-25T21:31:23.980Z,17.29
2022-10-25T21:33:54.086Z,17.23
2022-10-25T21:36:25.362Z,17.26
2022-10-25T21:38:53.910Z,17.23
2022-10-25T21:41:27.026Z,17.15
2022-10-25T21:43:57.049Z,17.22
2022-10-25T21:46:27.908Z,17.13
2022-10-25T21:48:56.134Z,17.15
2022-10-25T21:51:25.333Z,17.14
2022-10-25T21:53:54.017Z,17.17
2022-10-25T21:56:30.664Z,17.11
2022-10-25T21:59:01.099Z,17.14
2022-10-25T22:01:31.224Z,17.17
2022-10-25T22:03:59.762Z,17.14
2022-10-25T22:06:28.506Z,17.16
2022-10-25T22:08:57.401Z,17.17
2022-10-25T22:11:29.136Z,17.15
2022-10-25T22:13:58.797Z,17.13
2022-10-25T22:16:27.665Z,17.13
2022-10-25T22:18:58.862Z,17.10
2022-10-25T22:21:29.545Z,17.14
2022-10-25T22:23:57.797Z,17.13
2022-10-25T22:26:27.714Z,17.13
2022-10-25T22:28:58.505Z,17.11
2022-10-25T22:31:28.555Z,17.13
2022-10-25T22:33:58.681Z,17.12
2022-10-25T22:36:29.077Z,17.12
2022-10-25T22:38:57.880Z,17.17
2022-10-25T22:41:29.443Z,17.14
2022-10-25T22:43:58.311Z,17.12
2022-10-25T22:46:29.453Z,17.10
2022-10-25T22:49:00.179Z,17.06
2022-10-25T22:51:29.673Z,17.06
2022-10-25T22:53:58.133Z,17.07
2022-10-25T22:56:30.881Z,17.10
2022-10-25T22:59:01.318Z,17.13
2022-10-25T23:01:32.039Z,17.17
2022-10-25T23:04:01.371Z,17.13
2022-10-25T23:06:31.939Z,17.12
2022-10-25T23:09:02.564Z,17.06
2022-10-25T23:11:33.945Z,17.06
2022-10-25T23:14:05.178Z,17.03
2022-10-25T23:16:33.497Z,16.90
2022-10-25T23:19:02.105Z,16.94
2022-10-25T23:21:31.105Z,16.90
2022-10-25T23:24:00.895Z,16.95
2022-10-25T23:26:32.624Z,16.99
2022-10-25T23:29:01.990Z,17.03
2022-10-25T23:31:31.363Z,17.02
2022-10-25T23:34:01.878Z,16.99
2022-10-25T23:36:37.488Z,16.99
2022-10-25T23:39:07.323Z,17.04
2022-10-25T23:41:37.538Z,16.99
2022-10-25T23:44:05.970Z,17.03
2022-10-25T23:46:34.128Z,17.03
2022-10-25T23:49:02.273Z,17.04
2022-10-25T23:51:30.487Z,16.99
2022-10-25T23:53:58.649Z,17.00
2022-10-25T23:56:26.849Z,17.00
2022-10-25T23:58:56.377Z,17.04
